createdAt,value
2023-03-16T00:00:19.801Z,31.20
2023-03-16T00:05:46.805Z,34.30
2023-03-16T00:10:50.028Z,48.80
2023-03-16T00:15:56.148Z,46.30
2023-03-16T00:21:02.508Z,47.03
2023-03-16T00:26:08.490Z,34.40
2023-03-16T00:31:12.849Z,32.83
2023-03-16T00:36:17.173Z,27.03
2023-03-16T00:41:20.702Z,26.17
2023-03-16T00:46:26.939Z,31.00
2023-03-16T00:51:34.028Z,32.00
2023-03-16T00:56:37.211Z,35.80
2023-03-16T01:01:40.387Z,36.27
2023-03-16T01:06:43.591Z,28.10
2023-03-16T01:11:49.733Z,36.47
2023-03-16T01:16:53.043Z,33.20
2023-03-16T01:21:56.243Z,42.10
2023-03-16T01:26:59.373Z,44.80
2023-03-16T01:32:02.977Z,31.50
2023-03-16T01:37:06.297Z,35.20
2023-03-16T01:42:09.671Z,38.97
2023-03-16T01:47:14.942Z,31.00
2023-03-16T01:52:25.082Z,35.77
2023-03-16T01:57:35.676Z,32.27
2023-03-16T02:02:43.937Z,30.43
2023-03-16T02:07:58.921Z,31.03
2023-03-16T02:13:02.614Z,32.80
2023-03-16T02:18:08.083Z,27.47
2023-03-16T02:23:20.435Z,31.23
2023-03-16T02:28:38.377Z,27.13
2023-03-16T02:33:42.497Z,26.17
2023-03-16T02:38:46.826Z,26.03
2023-03-16T02:44:16.437Z,20.67
2023-03-16T02:49:26.048Z,21.60
2023-03-16T02:54:29.328Z,22.70
2023-03-16T02:59:32.479Z,20.60
2023-03-16T03:04:35.604Z,16.03
2023-03-16T03:09:38.782Z,30.33
2023-03-16T03:14:42.037Z,21.07
2023-03-16T03:19:45.285Z,25.57
2023-03-16T03:24:48.334Z,25.00
2023-03-16T03:29:52.707Z,22.10
2023-03-16T03:34:55.995Z,28.60
2023-03-16T03:39:59.114Z,23.80
2023-03-16T03:45:02.281Z,24.60
2023-03-16T03:50:06.234Z,23.97
2023-03-16T03:55:10.535Z,23.53
2023-03-16T04:00:13.977Z,20.50
2023-03-16T04:05:17.191Z,24.20
2023-03-16T04:10:21.333Z,27.80
2023-03-16T04:15:24.669Z,32.53
2023-03-16T04:20:29.999Z,20.20
2023-03-16T04:25:33.202Z,24.60
2023-03-16T04:30:36.337Z,28.47
2023-03-16T04:35:39.610Z,30.73
2023-03-16T04:40:42.824Z,31.03
2023-03-16T04:45:46.102Z,28.13
2023-03-16T04:50:49.666Z,28.53
2023-03-16T04:55:53.017Z,33.40
2023-03-16T05:00:56.437Z,27.97
2023-03-16T05:05:59.672Z,18.20
2023-03-16T05:11:02.968Z,22.97
2023-03-16T05:16:07.609Z,19.27
2023-03-16T05:21:12.452Z,25.07
2023-03-16T05:37:17.662Z,20.40
2023-03-16T05:42:20.732Z,15.70
2023-03-16T05:47:24.110Z,19.90
2023-03-16T05:52:27.252Z,21.13
2023-03-16T05:57:30.393Z,19.80
2023-03-16T06:02:33.639Z,26.80
2023-03-16T06:07:37.101Z,21.73
2023-03-16T06:12:40.418Z,22.27
2023-03-16T06:17:43.649Z,20.23
2023-03-16T06:22:46.783Z,19.07
2023-03-16T06:27:50.057Z,18.60
2023-03-16T06:32:53.209Z,19.50
2023-03-16T06:37:56.273Z,14.93
2023-03-16T06:42:59.430Z,12.87
2023-03-16T06:48:02.835Z,10.33
2023-03-16T06:53:06.020Z,12.23
2023-03-16T06:58:09.154Z,9.13
2023-03-16T07:03:13.127Z,11.03
2023-03-16T07:08:33.956Z,11.97
2023-03-16T07:13:37.666Z,13.90
2023-03-16T07:18:44.570Z,10.40
2023-03-16T07:23:48.313Z,8.80
2023-03-16T07:28:59.385Z,7.07
2023-03-16T07:34:04.317Z,8.50
2023-03-16T07:39:07.458Z,8.63
2023-03-16T07:44:11.670Z,10.43
2023-03-16T07:49:14.849Z,13.30
2023-03-16T07:54:18.048Z,9.00
2023-03-16T07:59:21.660Z,8.43
2023-03-16T08:04:24.794Z,9.30
2023-03-16T08:09:28.184Z,10.77
2023-03-16T08:14:34.665Z,9.73
2023-03-16T08:19:38.204Z,7.30
2023-03-16T08:24:41.329Z,9.57
2023-03-16T08:29:47.120Z,6.10
2023-03-16T08:34:50.631Z,9.77
2023-03-16T08:39:54.591Z,9.53
2023-03-16T08:45:00.595Z,11.53
2023-03-16T08:50:08.346Z,7.63
2023-03-16T08:55:11.812Z,6.50
2023-03-16T09:00:15.869Z,5.23
2023-03-16T09:05:19.366Z,6.27
2023-03-16T09:10:23.489Z,7.30
2023-03-16T09:15:27.139Z,11.93
2023-03-16T09:20:33.302Z,7.13
2023-03-16T09:25:37.030Z,9.00
2023-03-16T09:30:40.257Z,12.90
2023-03-16T09:35:46.094Z,6.43
2023-03-16T09:40:56.194Z,5.37
2023-03-16T09:46:13.373Z,3.30
2023-03-16T09:51:49.953Z,7.50
2023-03-16T09:56:54.904Z,10.73
2023-03-16T10:02:37.008Z,4.47
2023-03-16T10:08:09.283Z,7.23
2023-03-16T10:13:33.898Z,7.23
2023-03-16T10:18:53.077Z,5.03
2023-03-16T10:24:02.608Z,10.77
2023-03-16T10:29:13.186Z,7.53
2023-03-16T10:34:18.329Z,6.53
2023-03-16T10:39:21.537Z,6.33
2023-03-16T10:44:27.089Z,6.87
2023-03-16T10:49:36.632Z,5.80
2023-03-16T10:54:54.820Z,5.53
2023-03-16T11:00:20.914Z,6.47
2023-03-16T11:05:24.242Z,7.17
2023-03-16T11:10:38.077Z,4.50
2023-03-16T11:16:01.925Z,6.47
2023-03-16T11:21:56.106Z,6.37
2023-03-16T11:27:13.114Z,5.23
2023-03-16T11:32:21.427Z,5.50
2023-03-16T11:43:12.399Z,4.93
2023-03-16T11:48:42.327Z,3.83
2023-03-16T11:54:05.106Z,2.80
2023-03-16T11:59:36.312Z,2.67
2023-03-16T12:05:01.904Z,3.40
2023-03-16T12:10:27.944Z,3.40
2023-03-16T12:15:48.686Z,2.50
2023-03-16T12:26:27.099Z,3.77
2023-03-16T12:31:48.004Z,6.03
2023-03-16T12:37:01.335Z,4.07
2023-03-16T12:42:07.644Z,2.93
2023-03-16T12:47:34.463Z,6.77
2023-03-16T13:25:16.922Z,2.27
2023-03-16T13:30:32.304Z,1.90
2023-03-16T13:35:42.090Z,3.97
2023-03-16T13:40:51.920Z,4.63
2023-03-16T13:45:56.361Z,3.33
2023-03-16T13:51:02.166Z,5.63
2023-03-16T13:56:06.288Z,3.83
2023-03-16T14:01:25.052Z,2.70
2023-03-16T14:06:48.335Z,3.77
2023-03-16T14:11:52.620Z,2.07
2023-03-16T14:17:07.434Z,2.40
2023-03-16T14:22:16.017Z,2.83
2023-03-16T14:27:40.167Z,1.90
2023-03-16T14:38:36.454Z,2.17
2023-03-16T14:43:46.849Z,1.43
2023-03-16T14:48:50.869Z,2.43
2023-03-16T14:53:54.113Z,4.40
2023-03-16T14:58:57.295Z,1.27
2023-03-16T15:04:01.086Z,1.93
2023-03-16T15:09:04.534Z,3.10
2023-03-16T15:14:35.962Z,3.37
2023-03-16T15:19:39.274Z,6.57
2023-03-16T15:24:42.931Z,4.47
2023-03-16T15:29:46.435Z,4.60
2023-03-16T15:34:50.244Z,1.77
2023-03-16T15:39:53.503Z,6.60
2023-03-16T15:44:56.865Z,4.07
2023-03-16T15:50:06.843Z,5.00
2023-03-16T15:55:41.340Z,4.00
2023-03-16T16:00:47.155Z,5.37
2023-03-16T16:05:50.887Z,3.47
2023-03-16T16:10:54.911Z,5.23
2023-03-16T16:15:58.241Z,4.67
2023-03-16T16:21:03.623Z,4.30
2023-03-16T16:26:48.980Z,5.60
2023-03-16T16:31:54.383Z,3.47
2023-03-16T16:36:58.584Z,8.27
2023-03-16T16:42:02.065Z,12.93
2023-03-16T16:47:18.090Z,16.37
2023-03-16T16:52:22.058Z,20.47
2023-03-16T16:57:25.391Z,23.90
2023-03-16T17:02:42.430Z,23.93
2023-03-16T17:07:46.527Z,19.67
2023-03-16T17:12:52.842Z,21.23
2023-03-16T17:18:07.602Z,23.20
2023-03-16T17:23:33.059Z,18.83
2023-03-16T17:28:40.247Z,16.93
2023-03-16T17:33:45.506Z,20.20
2023-03-16T17:38:51.028Z,16.03
2023-03-16T17:44:01.817Z,19.90
2023-03-16T17:49:18.023Z,18.53
2023-03-16T17:54:30.002Z,16.73
2023-03-16T17:59:35.819Z,17.03
2023-03-16T18:04:41.550Z,16.77
2023-03-16T18:09:46.794Z,16.70
2023-03-16T18:14:54.730Z,22.10
2023-03-16T18:20:00.683Z,17.83
2023-03-16T18:25:34.601Z,16.70
2023-03-16T18:30:52.564Z,15.37
2023-03-16T18:36:14.591Z,21.63
2023-03-16T18:41:34.711Z,21.03
2023-03-16T18:46:41.160Z,21.93
2023-03-16T18:51:53.022Z,21.70
2023-03-16T18:57:01.636Z,25.43
2023-03-16T19:02:18.622Z,24.03
2023-03-16T19:07:45.474Z,36.33
2023-03-16T19:12:55.029Z,24.03
2023-03-16T19:18:01.936Z,26.33
2023-03-16T19:23:24.269Z,26.37
2023-03-16T19:28:40.058Z,28.40
2023-03-16T19:33:45.077Z,53.03
2023-03-16T19:38:53.169Z,50.00
2023-03-16T19:44:05.099Z,47.30
2023-03-16T19:49:17.493Z,29.67
2023-03-16T19:54:33.116Z,36.87
2023-03-16T19:59:41.244Z,38.93
2023-03-16T20:04:48.085Z,30.37
2023-03-16T20:09:57.885Z,32.37
2023-03-16T20:15:03.308Z,43.03
2023-03-16T20:20:22.648Z,33.03
